createdAt,value
2023-04-26T00:01:08.527Z,95331.78
2023-04-26T00:06:12.507Z,95328.78
2023-04-26T00:11:14.691Z,95342.34
2023-04-26T00:16:18.686Z,95330.84
2023-04-26T00:21:21.558Z,95317.34
2023-04-26T00:26:24.488Z,95314.22
2023-04-26T00:31:27.422Z,95306.38
2023-04-26T00:36:30.185Z,95314.53
2023-04-26T00:41:32.907Z,95309.94
2023-04-26T00:46:35.524Z,95291.75
2023-04-26T00:51:38.649Z,95289.44
2023-04-26T00:56:41.743Z,95289.56
2023-04-26T01:01:43.929Z,95290.50
2023-04-26T01:06:46.880Z,95277.72
2023-04-26T01:11:49.916Z,95284.31
2023-04-26T01:16:52.720Z,95271.03
2023-04-26T01:21:55.329Z,95279.09
2023-04-26T01:26:58.492Z,95260.63
2023-04-26T01:32:01.306Z,95286.13
2023-04-26T01:37:04.313Z,95274.09
2023-04-26T01:42:06.983Z,95233.94
2023-04-26T01:47:09.712Z,95253.59
2023-04-26T01:52:11.846Z,95259.78
2023-04-26T01:57:14.448Z,95241.19
2023-04-26T02:02:19.173Z,95213.25
2023-04-26T02:07:21.762Z,95243.38
2023-04-26T02:12:23.869Z,95203.63
2023-04-26T02:17:26.796Z,95228.63
2023-04-26T02:22:29.933Z,95227.88
2023-04-26T02:27:51.893Z,95226.09
2023-04-26T02:32:56.090Z,95233.22
2023-04-26T02:37:58.919Z,95215.03
2023-04-26T02:43:01.849Z,95223.25
2023-04-26T02:48:04.581Z,95231.00
2023-04-26T02:53:07.360Z,95223.16
2023-04-26T02:58:10.135Z,95225.56
2023-04-26T03:03:12.951Z,95229.47
2023-04-26T03:08:15.810Z,95224.03
2023-04-26T03:13:18.728Z,95241.78
2023-04-26T03:18:21.755Z,95225.28
2023-04-26T03:23:25.637Z,95257.28
2023-04-26T03:28:29.512Z,95237.81
2023-04-26T03:33:32.560Z,95257.00
2023-04-26T03:38:35.237Z,95244.47
2023-04-26T03:43:38.374Z,95270.16
2023-04-26T03:48:41.785Z,95290.66
2023-04-26T03:53:46.978Z,95280.22
2023-04-26T03:58:50.069Z,95264.28
2023-04-26T04:03:53.195Z,95276.59
2023-04-26T04:08:56.421Z,95291.16
2023-04-26T04:13:59.874Z,95305.78
2023-04-26T04:19:02.502Z,95298.59
2023-04-26T04:24:05.905Z,95308.22
2023-04-26T04:29:11.551Z,95300.59
2023-04-26T04:34:14.895Z,95305.97
2023-04-26T04:39:18.040Z,95294.25
2023-04-26T04:44:23.052Z,95290.91
2023-04-26T04:49:27.615Z,95286.63
2023-04-26T04:54:30.629Z,95261.22
2023-04-26T04:59:33.642Z,95273.56
2023-04-26T05:04:36.862Z,95251.06
2023-04-26T05:09:39.849Z,95255.63
2023-04-26T05:14:42.971Z,95265.81
2023-04-26T05:19:45.844Z,95253.69
2023-04-26T05:24:49.551Z,95253.75
2023-04-26T05:29:51.820Z,95242.72
2023-04-26T05:35:19.835Z,95240.47
2023-04-26T05:40:22.640Z,95231.34
2023-04-26T05:45:25.698Z,95249.31
2023-04-26T05:50:28.422Z,95246.69
2023-04-26T05:55:31.256Z,95237.75
2023-04-26T06:00:33.899Z,95213.72
2023-04-26T06:05:38.859Z,95204.22
2023-04-26T06:10:41.704Z,95196.88
2023-04-26T06:15:44.523Z,95174.09
2023-04-26T06:20:47.639Z,95195.38
2023-04-26T06:25:50.592Z,95187.09
2023-04-26T06:30:53.334Z,95180.25
2023-04-26T06:35:56.105Z,95182.22
2023-04-26T06:41:00.413Z,95192.50
2023-04-26T06:46:03.177Z,95198.41
2023-04-26T06:51:07.642Z,95199.03
2023-04-26T06:56:10.477Z,95180.00
2023-04-26T07:01:13.560Z,95170.94
2023-04-26T07:06:16.904Z,95179.91
2023-04-26T07:11:19.586Z,95189.38
2023-04-26T07:16:21.899Z,95190.66
2023-04-26T07:21:25.659Z,95198.91
2023-04-26T07:26:28.325Z,95185.72
2023-04-26T07:31:32.688Z,95210.72
2023-04-26T07:36:35.300Z,95212.84
2023-04-26T07:41:38.014Z,95219.22
2023-04-26T07:46:40.319Z,95204.09
2023-04-26T07:51:44.594Z,95201.66
2023-04-26T07:56:47.241Z,95220.41
2023-04-26T08:01:50.257Z,95205.06
2023-04-26T08:06:52.914Z,95203.03
2023-04-26T08:11:55.678Z,95221.84
2023-04-26T08:16:58.379Z,95211.34
2023-04-26T08:22:01.228Z,95212.47
2023-04-26T08:27:03.939Z,95232.03
2023-04-26T08:32:07.555Z,95216.94
2023-04-26T08:37:10.437Z,95223.22
2023-04-26T08:42:17.405Z,95206.63
2023-04-26T08:47:34.655Z,95195.41
2023-04-26T08:52:38.476Z,95195.69
2023-04-26T08:57:41.444Z,95191.22
2023-04-26T09:02:53.687Z,95203.22
2023-04-26T09:08:05.517Z,95213.72
2023-04-26T09:13:08.149Z,95188.44
2023-04-26T09:18:21.589Z,95183.69
2023-04-26T09:23:24.456Z,95213.78
2023-04-26T09:28:27.634Z,95210.31
2023-04-26T09:33:30.340Z,95194.22
2023-04-26T09:38:42.987Z,95210.72
2023-04-26T09:43:45.624Z,95201.59
2023-04-26T09:49:01.700Z,95194.88
2023-04-26T09:54:04.326Z,95200.25
2023-04-26T09:59:10.900Z,95205.63
2023-04-26T10:04:13.797Z,95194.94
2023-04-26T10:09:16.430Z,95190.41
2023-04-26T10:14:19.092Z,95182.66
2023-04-26T10:19:23.016Z,95199.13
2023-04-26T10:24:26.248Z,95205.44
2023-04-26T10:29:55.171Z,95205.56
2023-04-26T10:35:13.890Z,95195.41
2023-04-26T10:40:27.816Z,95211.59
2023-04-26T10:45:30.610Z,95185.78
2023-04-26T10:50:33.445Z,95187.34
2023-04-26T10:55:44.066Z,95183.31
2023-04-26T11:01:13.819Z,95185.13
2023-04-26T11:06:16.466Z,95197.00
2023-04-26T11:11:22.489Z,95196.06
2023-04-26T11:16:29.517Z,95193.09
2023-04-26T11:21:33.062Z,95188.63
2023-04-26T11:26:36.788Z,95189.09
2023-04-26T11:31:39.412Z,95195.91
2023-04-26T11:36:41.727Z,95200.84
2023-04-26T11:41:44.415Z,95188.25
2023-04-26T11:46:50.855Z,95199.56
2023-04-26T11:51:53.836Z,95203.88
2023-04-26T11:56:57.094Z,95196.44
2023-04-26T12:02:01.913Z,95194.50
2023-04-26T12:07:07.558Z,95205.75
2023-04-26T12:12:12.645Z,95207.31
2023-04-26T12:17:15.547Z,95213.19
2023-04-26T12:22:22.430Z,95196.59
2023-04-26T12:27:25.022Z,95198.31
2023-04-26T12:32:27.540Z,95198.25
2023-04-26T12:37:30.158Z,95205.19
2023-04-26T12:42:33.086Z,95187.19
2023-04-26T12:47:35.842Z,95203.66
2023-04-26T12:52:38.445Z,95192.91
2023-04-26T12:57:42.629Z,95200.28
2023-04-26T13:02:45.024Z,95189.28
2023-04-26T13:07:48.167Z,95180.28
2023-04-26T13:12:50.338Z,95181.38
2023-04-26T13:17:54.071Z,95187.84
2023-04-26T13:22:56.229Z,95195.88
2023-04-26T13:27:59.546Z,95198.72
2023-04-26T13:33:01.763Z,95191.56
2023-04-26T13:38:04.553Z,95190.81
2023-04-26T13:43:07.149Z,95189.19
2023-04-26T13:48:09.909Z,95196.44
2023-04-26T13:53:12.667Z,95186.63
2023-04-26T13:58:15.730Z,95198.66
2023-04-26T14:03:18.779Z,95199.56
2023-04-26T14:08:21.426Z,95194.13
2023-04-26T14:13:23.514Z,95211.16
2023-04-26T14:18:25.725Z,95231.16
2023-04-26T14:23:28.204Z,95239.38
2023-04-26T14:28:30.966Z,95236.97
2023-04-26T14:33:33.454Z,95255.06
2023-04-26T14:38:35.808Z,95257.16
2023-04-26T14:43:38.576Z,95239.75
2023-04-26T14:48:41.500Z,95258.28
2023-04-26T14:53:44.134Z,95241.03
2023-04-26T14:58:46.805Z,95259.31
2023-04-26T15:03:49.533Z,95252.88
2023-04-26T15:08:52.213Z,95271.25
2023-04-26T15:13:54.274Z,95267.72
2023-04-26T15:18:56.780Z,95275.50
2023-04-26T15:24:01.244Z,95262.41
2023-04-26T15:29:03.992Z,95264.00
2023-04-26T15:34:06.748Z,95260.91
2023-04-26T15:39:09.330Z,95254.72
2023-04-26T15:44:12.660Z,95263.81
2023-04-26T15:49:15.449Z,95272.19
2023-04-26T15:54:17.632Z,95263.16
2023-04-26T15:59:20.403Z,95273.44
2023-04-26T16:04:22.771Z,95288.16
2023-04-26T16:09:26.175Z,95282.72
2023-04-26T16:14:28.353Z,95282.31
2023-04-26T16:19:31.828Z,95306.63
2023-04-26T16:24:34.101Z,95303.84
2023-04-26T16:29:36.739Z,95301.50
2023-04-26T16:34:38.807Z,95310.38
2023-04-26T16:39:41.656Z,95324.50
2023-04-26T16:44:44.248Z,95329.25
2023-04-26T16:49:46.914Z,95332.69
2023-04-26T16:54:49.510Z,95326.97
2023-04-26T16:59:52.229Z,95334.22
2023-04-26T17:04:55.384Z,95347.72
2023-04-26T17:09:58.407Z,95339.94
2023-04-26T17:15:04.444Z,95357.34
2023-04-26T17:20:10.131Z,95372.69
2023-04-26T17:25:14.181Z,95374.63
2023-04-26T17:30:16.974Z,95397.75
2023-04-26T17:35:19.336Z,95416.03
2023-04-26T17:40:21.979Z,95407.75
2023-04-26T17:45:24.639Z,95424.44
2023-04-26T17:50:27.328Z,95435.41
2023-04-26T17:55:29.966Z,95432.50
2023-04-26T18:00:32.651Z,95444.44
2023-04-26T18:05:35.321Z,95457.84
2023-04-26T18:10:37.999Z,95461.06
2023-04-26T18:15:43.752Z,95463.97
2023-04-26T18:20:46.383Z,95486.78
2023-04-26T18:25:50.681Z,95484.50
2023-04-26T18:31:08.386Z,95502.41
2023-04-26T18:36:11.143Z,95481.41
2023-04-26T18:41:13.984Z,95508.06
2023-04-26T18:46:16.808Z,95511.88
2023-04-26T18:51:19.682Z,95506.50
2023-04-26T18:56:22.845Z,95529.69
2023-04-26T19:01:25.657Z,95512.56
2023-04-26T19:06:28.444Z,95499.41
2023-04-26T19:11:31.461Z,95533.72
2023-04-26T19:16:35.469Z,95506.81
2023-04-26T19:21:38.280Z,95548.88
2023-04-26T19:26:40.417Z,95541.53
2023-04-26T19:31:43.178Z,95560.94
2023-04-26T19:36:45.663Z,95569.72
2023-04-26T19:41:48.235Z,95555.53
2023-04-26T19:46:50.374Z,95578.94
2023-04-26T19:51:53.024Z,95589.72
2023-04-26T19:56:55.705Z,95599.34
2023-04-26T20:01:57.860Z,95589.28
2023-04-26T20:07:19.005Z,95587.91
2023-04-26T20:12:21.710Z,95599.94
2023-04-26T20:17:24.465Z,95600.31
2023-04-26T20:22:27.127Z,95577.28
2023-04-26T20:27:29.665Z,95601.94
2023-04-26T20:32:32.343Z,95593.56
2023-04-26T20:37:36.069Z,95580.31
2023-04-26T20:42:38.605Z,95590.41
2023-04-26T20:47:41.352Z,95584.16
2023-04-26T20:52:43.990Z,95603.41
2023-04-26T20:58:05.150Z,95618.53
2023-04-26T21:03:08.968Z,95635.97
2023-04-26T21:08:13.982Z,95627.47
2023-04-26T21:13:19.247Z,95657.88
2023-04-26T21:18:21.852Z,95647.97
2023-04-26T21:23:24.645Z,95652.94
2023-04-26T21:28:27.273Z,95643.69
2023-04-26T21:33:29.837Z,95663.81
2023-04-26T21:38:32.443Z,95674.47
2023-04-26T21:43:35.137Z,95646.06
2023-04-26T21:48:39.496Z,95697.75
2023-04-26T21:53:42.136Z,95714.28
2023-04-26T21:58:44.727Z,95678.25
2023-04-26T22:03:47.290Z,95720.47
2023-04-26T22:08:49.472Z,95745.88
2023-04-26T22:13:52.163Z,95761.63
2023-04-26T22:18:55.255Z,95751.63
2023-04-26T22:23:57.493Z,95753.53
2023-04-26T22:29:00.301Z,95758.38
2023-04-26T22:34:02.673Z,95760.44
2023-04-26T22:39:05.358Z,95753.19
2023-04-26T22:44:08.453Z,95767.63
2023-04-26T22:49:11.043Z,95757.88
2023-04-26T22:54:13.927Z,95772.75
2023-04-26T22:59:16.496Z,95761.97
2023-04-26T23:04:19.139Z,95765.75
2023-04-26T23:09:21.841Z,95775.16
2023-04-26T23:14:24.506Z,95800.25
2023-04-26T23:19:27.153Z,95800.00
2023-04-26T23:24:29.684Z,95782.13
2023-04-26T23:29:32.238Z,95783.97
2023-04-26T23:34:34.907Z,95782.13
2023-04-26T23:39:37.474Z,95803.13
2023-04-26T23:44:40.143Z,95811.88
2023-04-26T23:49:42.677Z,95792.22
2023-04-26T23:54:45.418Z,95770.38
2023-04-26T23:59:48.073Z,95799.38
